Kezdőlap
METAR-TAF:

METAR-TAF

Repülőterek :

Luang Namtha, Laosz

földrajzi szélesség: 20-57-38N, földrajzi hosszúság: 101-24-09E, magasság: 600 m

Jelenlegi meteorológiai megfigyelések

A jelentés 8 órával és 25 perccel ezelõtt készült, 12:00 UTC
Szélcsend
Hőmérséklet 26°C
Páratartalom 100%
Légköri nyomás 1004 hPa
Látótávolság: 4000 m
Szakadozott felhőzet 1000 lábon
Borult 9000 lábon
enyhe esõ,

METAR: VLLN 191200Z 00000KT 4000 -RA BKN010 OVC090 26/26 Q1004 NOSIG

Idő: 01:55 (20:25 UTC)

Előrejelzés

A jelentés 3 órával és 25 perccel ezelõtt készült, 17:00 UTC
Az előrejelzés 19-én 18 óra UTC és 20-én 18 óra UTC között érvényes
Déli szél 4 kt
Látótávolság 10 km, vagy több
Szórványos felhőzet 1600 lábon
Szakadozott felhőzet 10000 lábon

TAF: VLLN 191700Z 1918/2018 18004KT 9999 SCT016 BKN100

Meteorológiai megfigyelések és előrejelzések több, mint 4000 repülőtéren (METAR és TAF jelentéseket).

A térképen piros és sárga pontok jelzik az elérhető meteorológiai állomásokat.

Mozgassa az egeret a pont fölött, hogy megjelenjen az állomás neve.

Azután kattintson az időjárási megfigyelések és előrejelzések megtekintéséhez.

A térkép megváltoztatása: kattintson a fekete keresztel jelölt zöld gombra ráközelítéshez, a vonallal jelölt zöld gombra távolításhoz, vagy a zöld nyilakra a szomszédos térképek eléréséhez.


METAR-TAF: